Time;durP1;ratioP1;P1;durP2;ratioP2;P2;SDS_P1;SDS_P2;PMS_P1;PMS_P2;Temp;Humidity;BMP_temperature;BMP_pressure;BME280_temperature;BME280_humidity;BME280_pressure;Samples;Min_cycle;Max_cycle;Signal;HPM_P1;HPM_P2
2023/07/30 00:01:20;;;;;;;3.90;3.00;;;16.80;99.90;;;;;;5013341;28;20054;-77
2023/07/30 00:03:45;;;;;;;6.05;3.53;;;16.80;99.90;;;;;;5013033;28;20026;-80
2023/07/30 00:06:11;;;;;;;3.10;2.80;;;16.80;99.90;;;;;;5012023;28;20534;-80
2023/07/30 00:08:37;;;;;;;3.03;2.67;;;16.80;99.90;;;;;;5011388;28;20112;-77
2023/07/30 00:11:02;;;;;;;3.97;3.55;;;16.80;99.90;;;;;;5013100;28;20036;-81
2023/07/30 00:13:28;;;;;;;4.55;3.15;;;16.80;99.90;;;;;;5011772;28;20113;-80
2023/07/30 00:15:54;;;;;;;6.25;3.33;;;16.80;99.90;;;;;;5013104;28;20022;-77
2023/07/30 00:18:19;;;;;;;4.10;2.72;;;16.90;99.90;;;;;;5012783;28;20033;-77
2023/07/30 00:20:45;;;;;;;7.07;3.60;;;16.90;99.90;;;;;;5011703;28;20033;-80
2023/07/30 00:23:10;;;;;;;5.50;2.75;;;16.90;99.90;;;;;;5011430;28;20424;-80
2023/07/30 00:25:36;;;;;;;5.13;3.13;;;16.90;99.90;;;;;;5011751;28;20033;-77
2023/07/30 00:28:02;;;;;;;6.60;3.85;;;16.90;99.90;;;;;;5012678;28;20053;-80
2023/07/30 00:30:28;;;;;;;5.47;3.15;;;17.00;99.90;;;;;;5013065;28;20030;-80
2023/07/30 00:32:53;;;;;;;4.22;3.38;;;16.90;99.90;;;;;;5010974;28;20046;-81
2023/07/30 00:35:19;;;;;;;6.60;3.60;;;17.00;99.90;;;;;;5012725;28;20022;-81
2023/07/30 00:37:45;;;;;;;3.97;3.40;;;17.00;99.90;;;;;;5011122;28;20075;-77
2023/07/30 00:40:11;;;;;;;7.40;4.15;;;17.00;99.90;;;;;;5012794;28;20042;-77
2023/07/30 00:42:36;;;;;;;6.78;3.83;;;17.00;99.90;;;;;;5012413;28;20539;-77
2023/07/30 00:45:03;;;;;;;5.18;3.80;;;17.00;99.90;;;;;;5012679;28;20101;-77
2023/07/30 00:47:28;;;;;;;5.13;3.60;;;17.00;99.90;;;;;;5011014;28;20491;-80
2023/07/30 00:49:55;;;;;;;5.60;3.75;;;17.10;99.90;;;;;;5011336;28;20037;-80
2023/07/30 00:52:22;;;;;;;4.43;3.78;;;17.10;99.90;;;;;;5011803;28;20050;-77
2023/07/30 00:54:49;;;;;;;4.53;3.50;;;17.20;99.90;;;;;;5010490;28;20041;-77
2023/07/30 00:57:16;;;;;;;5.28;3.50;;;17.20;99.90;;;;;;5010864;28;20552;-77
2023/07/30 00:59:42;;;;;;;3.97;3.53;;;17.20;99.90;;;;;;5012377;28;20071;-79
2023/07/30 01:02:08;;;;;;;5.15;3.53;;;17.20;99.90;;;;;;5011813;28;20030;-80
2023/07/30 01:04:33;;;;;;;3.80;3.17;;;17.10;99.90;;;;;;5012564;28;20421;-77
2023/07/30 01:06:59;;;;;;;3.47;3.17;;;17.10;99.90;;;;;;5010785;28;20067;-80
2023/07/30 01:09:25;;;;;;;6.47;3.65;;;17.10;99.90;;;;;;5010323;28;20026;-77
2023/07/30 01:11:53;;;;;;;5.07;3.65;;;17.10;99.90;;;;;;5011852;28;20056;-77
2023/07/30 01:14:21;;;;;;;3.10;2.75;;;17.00;99.90;;;;;;5010823;28;20506;-77
2023/07/30 01:16:46;;;;;;;4.18;3.35;;;17.10;99.90;;;;;;5010506;28;20030;-77
2023/07/30 01:19:12;;;;;;;3.88;3.47;;;17.10;99.90;;;;;;5012283;28;20033;-78
2023/07/30 01:21:38;;;;;;;3.15;2.90;;;17.00;99.90;;;;;;5006245;28;20033;-80
2023/07/30 01:24:03;;;;;;;3.47;3.15;;;17.00;99.90;;;;;;5003813;28;20030;-77
2023/07/30 01:26:54;;;;;;;5.63;3.83;;;17.00;99.90;;;;;;5011977;28;20024;-80
2023/07/30 01:29:40;;;;;;;3.72;3.13;;;16.90;99.90;;;;;;5011792;28;20537;-80
2023/07/30 01:32:10;;;;;;;3.35;3.05;;;16.80;99.90;;;;;;5011036;28;20421;-77
2023/07/30 01:34:37;;;;;;;8.13;3.92;;;16.80;99.90;;;;;;5010801;28;20041;-80
2023/07/30 01:37:05;;;;;;;5.97;3.72;;;16.80;99.90;;;;;;5010313;28;20038;-80
2023/07/30 01:39:32;;;;;;;3.67;3.25;;;16.70;99.90;;;;;;5011748;28;20018;-80
2023/07/30 01:41:58;;;;;;;5.00;3.60;;;16.70;99.90;;;;;;5011707;28;20033;-77
2023/07/30 01:44:23;;;;;;;5.35;3.67;;;16.70;99.90;;;;;;5011524;28;20022;-80
2023/07/30 01:46:49;;;;;;;6.72;4.10;;;16.70;99.90;;;;;;5011735;28;20412;-80
2023/07/30 01:49:14;;;;;;;5.22;3.95;;;16.70;99.90;;;;;;5010346;28;20025;-77
2023/07/30 01:51:40;;;;;;;3.85;3.45;;;16.70;99.90;;;;;;5010446;28;20030;-80
2023/07/30 01:54:05;;;;;;;7.75;5.95;;;16.60;99.90;;;;;;5005875;28;20039;-77
2023/07/30 01:56:31;;;;;;;8.18;7.15;;;16.60;99.90;;;;;;5004113;28;20670;-80
2023/07/30 01:58:57;;;;;;;23.77;15.07;;;16.50;99.90;;;;;;5009878;28;20030;-81
2023/07/30 02:01:22;;;;;;;33.05;21.80;;;16.40;99.90;;;;;;5011593;28;20033;-77
2023/07/30 02:03:48;;;;;;;58.38;29.42;;;16.40;99.90;;;;;;5009806;28;20014;-77
2023/07/30 02:06:14;;;;;;;47.08;28.67;;;16.30;99.90;;;;;;5011502;28;20080;-77
2023/07/30 02:08:39;;;;;;;64.30;39.78;;;16.30;99.90;;;;;;5009507;28;20164;-77
2023/07/30 02:11:05;;;;;;;46.45;26.92;;;16.20;99.90;;;;;;5011295;28;20030;-80
2023/07/30 02:13:30;;;;;;;16.52;10.93;;;16.20;99.90;;;;;;5009753;28;20025;-77
2023/07/30 02:15:56;;;;;;;14.02;9.43;;;16.20;99.90;;;;;;5011233;28;20035;-77
2023/07/30 02:18:21;;;;;;;20.65;12.27;;;16.20;99.90;;;;;;5007067;28;20041;-77
2023/07/30 02:20:47;;;;;;;16.75;9.55;;;16.20;99.90;;;;;;5049167;28;20171;-77
2023/07/30 02:23:16;;;;;;;12.15;8.20;;;16.20;99.90;;;;;;5084944;28;20023;-77
2023/07/30 02:25:42;;;;;;;7.07;4.85;;;16.10;99.90;;;;;;5050897;28;20022;-77
2023/07/30 02:28:07;;;;;;;5.18;3.72;;;16.10;99.90;;;;;;5045971;28;20020;-78
2023/07/30 02:30:34;;;;;;;4.93;3.20;;;16.10;99.90;;;;;;5033851;28;20030;-80
2023/07/30 02:32:59;;;;;;;4.97;3.25;;;16.10;99.90;;;;;;5009678;28;20022;-80
2023/07/30 02:35:25;;;;;;;9.70;3.28;;;16.10;99.90;;;;;;5009501;28;20433;-77
2023/07/30 02:37:51;;;;;;;4.93;3.38;;;16.00;99.90;;;;;;5072412;28;20037;-77
2023/07/30 02:40:17;;;;;;;4.65;3.08;;;16.00;99.90;;;;;;5009774;28;20431;-80
2023/07/30 02:42:42;;;;;;;4.50;3.05;;;16.00;99.90;;;;;;5010676;28;20113;-77
2023/07/30 02:45:08;;;;;;;3.45;3.10;;;16.00;99.90;;;;;;5009728;28;20029;-78
2023/07/30 02:47:34;;;;;;;4.15;2.90;;;16.00;99.90;;;;;;5010650;28;20036;-77
2023/07/30 02:49:59;;;;;;;4.25;2.83;;;15.90;99.90;;;;;;5010820;28;20033;-77
2023/07/30 02:52:25;;;;;;;4.30;2.60;;;15.90;99.90;;;;;;5010427;28;20038;-80
2023/07/30 02:54:50;;;;;;;5.63;2.67;;;15.90;99.90;;;;;;5072291;28;20479;-77
2023/07/30 02:57:16;;;;;;;3.50;3.20;;;15.80;99.90;;;;;;5010670;28;20121;-80
2023/07/30 02:59:42;;;;;;;4.50;3.45;;;15.80;99.90;;;;;;5010461;28;20018;-77
2023/07/30 03:02:07;;;;;;;3.88;2.80;;;15.70;99.90;;;;;;5010605;28;20062;-80
2023/07/30 03:04:33;;;;;;;3.30;3.00;;;15.70;99.90;;;;;;5010319;28;20052;-80
2023/07/30 03:06:59;;;;;;;3.50;2.50;;;15.70;99.90;;;;;;5010612;28;20022;-80
2023/07/30 03:09:24;;;;;;;2.88;2.60;;;15.70;99.90;;;;;;5010270;28;20026;-79
2023/07/30 03:11:50;;;;;;;4.70;2.95;;;15.70;99.90;;;;;;5010539;28;20474;-80
2023/07/30 03:14:16;;;;;;;3.85;3.22;;;15.70;99.90;;;;;;5008528;28;20074;-80
2023/07/30 03:16:42;;;;;;;4.82;3.10;;;15.70;99.90;;;;;;5010399;28;20022;-80
2023/07/30 03:19:07;;;;;;;5.10;2.92;;;15.60;99.90;;;;;;5010005;28;20459;-80
2023/07/30 03:21:33;;;;;;;4.05;2.70;;;15.60;99.90;;;;;;5010402;28;20026;-77
2023/07/30 03:23:58;;;;;;;3.85;2.20;;;15.70;99.90;;;;;;5010113;28;20482;-80
2023/07/30 03:26:24;;;;;;;3.15;2.85;;;15.60;99.90;;;;;;5010386;28;20041;-78
2023/07/30 03:28:50;;;;;;;6.75;2.88;;;15.70;99.90;;;;;;5072920;28;20471;-77
2023/07/30 03:31:15;;;;;;;6.93;3.22;;;15.70;99.90;;;;;;5010224;28;20024;-78
2023/07/30 03:33:45;;;;;;;2.85;2.42;;;15.70;99.90;;;;;;5009799;28;20136;-78
2023/07/30 03:36:11;;;;;;;3.78;3.15;;;15.70;99.90;;;;;;5008834;28;20026;-77
2023/07/30 03:38:37;;;;;;;4.80;2.90;;;15.70;99.90;;;;;;5009918;28;20026;-79
2023/07/30 03:41:05;;;;;;;3.00;2.78;;;15.80;99.90;;;;;;5008808;28;20066;-80
2023/07/30 03:43:31;;;;;;;4.13;2.45;;;15.80;99.90;;;;;;5009861;28;20029;-77
2023/07/30 03:45:56;;;;;;;6.35;3.15;;;15.80;99.90;;;;;;5009933;28;20386;-77
2023/07/30 03:48:22;;;;;;;4.32;3.10;;;15.90;99.90;;;;;;5009829;28;20014;-80
2023/07/30 03:50:48;;;;;;;6.90;3.00;;;15.90;99.90;;;;;;5008743;28;20024;-78
2023/07/30 03:53:13;;;;;;;3.60;2.88;;;15.90;99.90;;;;;;5008397;28;20046;-77
2023/07/30 03:55:40;;;;;;;2.90;2.53;;;15.90;99.90;;;;;;5009877;28;20026;-77
2023/07/30 03:58:05;;;;;;;4.45;2.45;;;15.90;99.90;;;;;;5009442;28;20034;-77
2023/07/30 04:00:31;;;;;;;4.75;2.75;;;15.90;99.90;;;;;;5009372;28;20104;-77
2023/07/30 04:02:57;;;;;;;4.68;3.08;;;15.90;99.90;;;;;;5009640;28;20033;-77
2023/07/30 04:05:22;;;;;;;6.10;2.80;;;15.90;99.90;;;;;;5009813;28;20029;-80
2023/07/30 04:07:48;;;;;;;7.57;3.90;;;15.90;99.90;;;;;;5009702;28;20028;-79
2023/07/30 04:10:13;;;;;;;8.43;3.35;;;15.90;99.90;;;;;;5008553;28;20464;-80
2023/07/30 04:12:39;;;;;;;3.33;3.03;;;15.90;99.90;;;;;;5008216;28;20021;-80
2023/07/30 04:15:05;;;;;;;8.50;3.25;;;15.80;99.90;;;;;;5008508;28;20029;-77
2023/07/30 04:17:31;;;;;;;5.90;3.28;;;15.90;99.90;;;;;;5009073;28;20513;-80
2023/07/30 04:19:56;;;;;;;4.78;3.13;;;15.90;99.90;;;;;;5009533;28;20053;-80
2023/07/30 04:22:22;;;;;;;9.13;3.67;;;15.90;99.90;;;;;;5009496;28;20018;-77
2023/07/30 04:24:48;;;;;;;4.78;3.17;;;16.00;99.90;;;;;;5009556;28;20532;-77
2023/07/30 04:27:13;;;;;;;6.28;3.40;;;16.00;99.90;;;;;;5020330;28;20029;-80
2023/07/30 04:29:39;;;;;;;7.70;3.65;;;16.00;99.90;;;;;;5050330;28;20124;-80
2023/07/30 04:32:05;;;;;;;5.18;2.80;;;16.10;99.90;;;;;;5006365;28;20468;-80
2023/07/30 04:34:31;;;;;;;6.60;3.90;;;16.10;99.90;;;;;;5009474;28;20037;-77
2023/07/30 04:36:56;;;;;;;5.80;3.50;;;16.20;99.90;;;;;;5007825;28;20467;-77
2023/07/30 04:39:22;;;;;;;5.85;3.55;;;16.20;99.90;;;;;;5008055;28;20018;-80
2023/07/30 04:41:47;;;;;;;7.07;3.78;;;16.30;99.90;;;;;;5009093;28;20022;-77
2023/07/30 04:44:13;;;;;;;6.18;3.80;;;16.30;99.90;;;;;;5008174;28;20018;-80
2023/07/30 04:46:39;;;;;;;6.15;3.25;;;16.40;99.90;;;;;;5012422;28;20037;-80
2023/07/30 04:49:04;;;;;;;4.45;3.30;;;16.50;99.90;;;;;;5011336;28;20082;-78
2023/07/30 04:51:30;;;;;;;8.43;3.33;;;16.50;99.90;;;;;;5012401;28;20029;-80
2023/07/30 04:53:56;;;;;;;3.72;3.00;;;16.60;99.90;;;;;;5012669;28;20470;-77
2023/07/30 04:56:21;;;;;;;5.00;2.90;;;16.60;99.90;;;;;;5012372;28;20057;-77
2023/07/30 04:58:47;;;;;;;4.63;3.15;;;16.60;99.90;;;;;;5012367;28;20044;-77
2023/07/30 05:01:12;;;;;;;3.97;2.97;;;16.60;99.90;;;;;;5012234;28;20026;-77
2023/07/30 05:03:38;;;;;;;5.10;3.55;;;16.60;99.90;;;;;;5011205;28;20029;-77
2023/07/30 05:06:03;;;;;;;4.18;3.30;;;16.60;99.90;;;;;;5010957;28;20746;-77
2023/07/30 05:08:29;;;;;;;4.32;3.33;;;16.70;99.90;;;;;;5019498;28;20056;-80
2023/07/30 05:10:55;;;;;;;4.57;2.92;;;16.80;99.90;;;;;;5010567;28;20051;-81
2023/07/30 05:13:20;;;;;;;5.95;3.50;;;16.90;99.90;;;;;;5012200;28;20033;-82
2023/07/30 05:15:46;;;;;;;5.72;2.60;;;16.90;99.90;;;;;;5011988;28;20022;-78
2023/07/30 05:18:13;;;;;;;4.30;2.97;;;17.00;99.90;;;;;;5012188;28;20914;-78
2023/07/30 05:20:39;;;;;;;5.07;2.70;;;17.00;99.90;;;;;;5012089;28;20101;-77
2023/07/30 05:23:06;;;;;;;4.28;2.90;;;17.00;99.90;;;;;;5010820;28;20117;-77
2023/07/30 05:25:32;;;;;;;3.92;2.80;;;17.00;99.90;;;;;;5010435;28;20061;-81
2023/07/30 05:27:58;;;;;;;4.13;2.88;;;17.10;99.90;;;;;;5054690;28;20428;-77
2023/07/30 05:30:24;;;;;;;3.83;2.42;;;17.10;99.90;;;;;;5030247;28;20029;-80
2023/07/30 05:32:49;;;;;;;2.95;2.17;;;17.20;99.90;;;;;;5011948;28;20397;-77
2023/07/30 05:35:15;;;;;;;2.58;2.20;;;17.20;99.90;;;;;;5010460;28;20034;-80
2023/07/30 05:37:41;;;;;;;4.40;2.47;;;17.20;99.90;;;;;;5002880;28;20046;-76
2023/07/30 05:40:07;;;;;;;2.72;2.53;;;17.30;99.90;;;;;;5007543;28;20103;-80
2023/07/30 05:42:32;;;;;;;3.05;2.35;;;17.50;99.90;;;;;;5011693;28;20030;-77
2023/07/30 05:44:58;;;;;;;3.65;3.05;;;17.60;99.90;;;;;;5010428;28;20091;-81
2023/07/30 05:47:24;;;;;;;3.92;1.95;;;17.60;99.90;;;;;;5019430;28;20109;-77
2023/07/30 05:49:49;;;;;;;2.38;2.17;;;17.70;99.90;;;;;;4998941;28;20037;-81
2023/07/30 05:52:15;;;;;;;2.38;1.95;;;17.80;99.90;;;;;;5001458;28;20129;-81
2023/07/30 05:54:40;;;;;;;2.58;2.00;;;17.90;99.90;;;;;;5003449;28;20470;-77
2023/07/30 05:57:06;;;;;;;2.75;1.85;;;18.10;99.90;;;;;;4998845;28;20079;-77
2023/07/30 05:59:32;;;;;;;3.17;2.03;;;18.20;99.90;;;;;;4998116;28;20077;-81
2023/07/30 06:02:02;;;;;;;2.15;1.88;;;18.40;99.90;;;;;;4999251;28;20533;-81
2023/07/30 06:04:28;;;;;;;2.55;1.85;;;18.60;99.90;;;;;;4998411;28;20472;-77
2023/07/30 06:06:54;;;;;;;1.77;1.65;;;18.70;99.90;;;;;;5002243;28;20033;-77
2023/07/30 06:09:19;;;;;;;2.47;1.50;;;18.80;99.90;;;;;;5002405;28;20487;-77
2023/07/30 06:11:45;;;;;;;2.22;1.70;;;19.00;99.90;;;;;;5001837;28;20518;-77
2023/07/30 06:14:10;;;;;;;1.85;1.75;;;19.10;99.90;;;;;;5003731;28;20022;-81
2023/07/30 06:16:36;;;;;;;5.80;2.20;;;19.20;99.90;;;;;;5007478;28;20030;-81
2023/07/30 06:19:02;;;;;;;1.60;1.50;;;19.30;99.90;;;;;;5006196;28;20026;-83
2023/07/30 06:21:27;;;;;;;1.80;1.70;;;19.50;99.90;;;;;;4993492;28;20113;-82
2023/07/30 06:23:53;;;;;;;3.08;1.83;;;19.70;99.90;;;;;;5006581;28;20483;-82
2023/07/30 06:26:19;;;;;;;1.95;1.58;;;19.80;99.90;;;;;;5009523;28;20025;-83
2023/07/30 06:28:44;;;;;;;1.95;1.75;;;19.80;99.90;;;;;;5072563;28;20035;-83
2023/07/30 06:31:10;;;;;;;2.58;1.83;;;20.00;99.90;;;;;;5003367;28;20026;-82
2023/07/30 06:33:37;;;;;;;3.17;1.80;;;20.10;99.90;;;;;;5009189;28;20471;-83
2023/07/30 06:36:03;;;;;;;4.82;2.13;;;20.20;99.90;;;;;;5009533;28;20028;-83
2023/07/30 06:38:29;;;;;;;2.22;1.60;;;20.30;99.90;;;;;;5010560;28;20030;-83
2023/07/30 06:40:57;;;;;;;1.77;1.60;;;20.50;99.90;;;;;;5009803;28;20026;-83
2023/07/30 06:43:23;;;;;;;2.15;1.60;;;20.40;99.90;;;;;;5006758;28;20022;-83
2023/07/30 06:45:49;;;;;;;1.67;1.55;;;20.60;99.90;;;;;;5000171;28;20026;-83
2023/07/30 06:48:15;;;;;;;5.07;2.00;;;20.70;99.90;;;;;;5010327;28;20036;-82
2023/07/30 06:50:41;;;;;;;1.75;1.50;;;20.90;99.90;;;;;;5010588;28;20022;-83
2023/07/30 06:53:07;;;;;;;3.60;2.05;;;20.90;99.90;;;;;;5012019;28;20097;-82
2023/07/30 06:55:33;;;;;;;2.22;1.88;;;21.10;99.90;;;;;;5004482;28;20480;-83
2023/07/30 06:57:59;;;;;;;3.10;1.65;;;21.30;99.90;;;;;;4996191;28;20128;-83
2023/07/30 07:00:24;;;;;;;4.05;2.10;;;21.30;99.90;;;;;;4994190;28;20571;-82
2023/07/30 07:02:50;;;;;;;2.30;2.00;;;21.50;99.90;;;;;;5004328;28;20033;-83
2023/07/30 07:05:16;;;;;;;2.60;1.70;;;21.70;99.90;;;;;;5005091;28;20048;-83
2023/07/30 07:07:42;;;;;;;2.65;2.28;;;21.70;99.70;;;;;;5000390;28;20034;-81
2023/07/30 07:10:10;;;;;;;3.30;2.08;;;21.90;99.80;;;;;;5008940;28;20014;-79
2023/07/30 07:12:37;;;;;;;9.35;2.28;;;22.00;99.90;;;;;;4997447;28;20030;-79
2023/07/30 07:15:03;;;;;;;2.28;1.80;;;22.00;95.70;;;;;;5018158;28;20026;-79
2023/07/30 07:17:29;;;;;;;2.90;2.20;;;22.20;97.60;;;;;;5008593;28;20049;-82
2023/07/30 07:19:54;;;;;;;4.47;2.38;;;22.20;94.90;;;;;;5015657;28;20022;-82
2023/07/30 07:22:20;;;;;;;2.20;1.73;;;22.40;98.20;;;;;;5012818;28;20560;-82
2023/07/30 07:24:46;;;;;;;1.85;1.73;;;22.20;91.40;;;;;;5005329;28;20022;-81
2023/07/30 07:27:11;;;;;;;3.25;1.77;;;22.40;93.60;;;;;;4998823;28;20052;-81
2023/07/30 07:29:37;;;;;;;3.45;2.28;;;22.40;92.90;;;;;;5006057;28;20088;-82
2023/07/30 07:32:03;;;;;;;1.77;1.67;;;22.50;90.00;;;;;;5009851;28;20022;-79
2023/07/30 07:34:29;;;;;;;2.38;2.00;;;22.60;88.80;;;;;;5010051;28;20018;-80
2023/07/30 07:36:54;;;;;;;2.42;1.65;;;22.60;83.80;;;;;;5008376;28;20025;-81
2023/07/30 07:39:20;;;;;;;1.70;1.60;;;22.40;79.70;;;;;;5008889;28;20386;-82
2023/07/30 07:41:46;;;;;;;2.50;1.92;;;22.30;83.60;;;;;;5008686;28;20498;-81
2023/07/30 07:44:11;;;;;;;2.03;1.83;;;22.30;81.80;;;;;;5003398;28;20113;-80
2023/07/30 07:46:37;;;;;;;2.95;2.53;;;22.50;82.60;;;;;;5001530;28;20053;-82
2023/07/30 07:49:03;;;;;;;3.05;1.80;;;22.70;86.50;;;;;;5006815;28;20022;-80
2023/07/30 07:51:28;;;;;;;2.42;1.95;;;22.70;86.00;;;;;;4998196;28;20510;-83
2023/07/30 07:53:54;;;;;;;2.47;2.28;;;22.60;81.40;;;;;;5005727;28;20073;-82
2023/07/30 07:56:20;;;;;;;3.38;2.00;;;22.70;82.00;;;;;;5007032;28;20379;-79
2023/07/30 07:58:45;;;;;;;3.72;1.95;;;22.70;80.40;;;;;;5000596;28;20046;-81
2023/07/30 08:01:11;;;;;;;2.10;1.85;;;22.70;81.00;;;;;;4999321;28;20497;-80
2023/07/30 08:03:36;;;;;;;2.10;1.90;;;22.80;82.00;;;;;;4993032;28;20112;-81
2023/07/30 08:06:02;;;;;;;2.05;1.92;;;22.70;78.70;;;;;;5001061;28;20103;-82
2023/07/30 08:08:28;;;;;;;3.47;2.13;;;22.60;78.20;;;;;;5002028;28;20038;-81
2023/07/30 08:10:54;;;;;;;2.80;1.95;;;22.60;79.70;;;;;;5008188;28;20029;-81
2023/07/30 08:13:20;;;;;;;2.60;2.40;;;22.80;80.80;;;;;;5008110;28;20022;-81
2023/07/30 08:15:46;;;;;;;2.10;1.90;;;22.80;79.70;;;;;;5009406;28;20110;-81
2023/07/30 08:18:12;;;;;;;2.50;2.13;;;22.90;82.50;;;;;;5009257;28;20063;-81
2023/07/30 08:20:37;;;;;;;2.30;1.83;;;22.70;82.00;;;;;;5010324;28;20029;-82
2023/07/30 08:23:03;;;;;;;2.78;1.95;;;22.70;81.10;;;;;;5011327;28;20018;-82
2023/07/30 08:25:29;;;;;;;3.00;2.15;;;22.80;80.40;;;;;;5011552;28;20022;-81
2023/07/30 08:27:55;;;;;;;5.47;2.30;;;22.80;81.40;;;;;;5053730;28;20016;-81
2023/07/30 08:30:21;;;;;;;3.05;2.42;;;23.00;81.00;;;;;;5034828;28;20024;-82
2023/07/30 08:32:46;;;;;;;2.30;2.10;;;23.10;80.20;;;;;;5016474;28;20056;-82
2023/07/30 08:35:12;;;;;;;2.35;2.13;;;23.30;76.20;;;;;;4998819;28;20056;-80
2023/07/30 08:37:38;;;;;;;2.53;2.00;;;23.30;72.70;;;;;;5012495;28;20034;-81
2023/07/30 08:40:04;;;;;;;2.17;1.80;;;23.60;75.60;;;;;;5012635;28;20052;-80
2023/07/30 08:42:30;;;;;;;2.35;1.90;;;23.40;72.30;;;;;;5012672;28;20033;-81
2023/07/30 08:44:55;;;;;;;2.60;2.10;;;23.60;75.80;;;;;;5012329;28;20026;-81
2023/07/30 08:47:21;;;;;;;3.25;2.47;;;23.70;76.50;;;;;;5011313;28;20018;-82
2023/07/30 08:49:46;;;;;;;3.22;2.92;;;24.00;76.50;;;;;;5002543;28;20027;-82
2023/07/30 08:52:13;;;;;;;2.95;2.00;;;23.70;72.80;;;;;;5004569;28;20054;-81
2023/07/30 08:54:40;;;;;;;2.30;2.10;;;23.80;75.30;;;;;;5010695;28;20486;-81
2023/07/30 08:57:07;;;;;;;2.70;1.90;;;23.80;73.40;;;;;;5011056;28;20482;-81
2023/07/30 08:59:56;;;;;;;3.38;2.03;;;23.80;74.00;;;;;;5012213;28;20026;-81
2023/07/30 09:02:33;;;;;;;2.60;1.92;;;23.90;76.50;;;;;;5012289;28;20028;-81
2023/07/30 09:05:00;;;;;;;1.70;1.58;;;24.00;72.40;;;;;;5016386;28;20025;-82
2023/07/30 09:07:26;;;;;;;3.40;2.00;;;23.80;76.00;;;;;;4997912;28;20022;-82
2023/07/30 09:09:51;;;;;;;2.65;2.05;;;23.80;72.60;;;;;;4996273;28;20022;-81
2023/07/30 09:12:17;;;;;;;2.15;1.95;;;23.80;70.60;;;;;;5021891;28;20026;-82
2023/07/30 09:14:46;;;;;;;2.33;2.13;;;23.90;70.60;;;;;;4993794;28;20033;-82
2023/07/30 09:17:17;;;;;;;2.50;1.98;;;23.80;72.20;;;;;;4998724;28;20078;-82
2023/07/30 09:19:43;;;;;;;2.05;1.83;;;23.80;73.00;;;;;;5003446;28;20032;-82
2023/07/30 09:22:09;;;;;;;2.60;2.10;;;23.90;72.60;;;;;;5000563;28;20033;-81
2023/07/30 09:24:35;;;;;;;1.73;1.63;;;23.80;71.80;;;;;;5001776;28;20031;-80
2023/07/30 09:27:04;;;;;;;1.90;1.55;;;24.00;72.50;;;;;;5051030;28;20042;-80
2023/07/30 09:29:30;;;;;;;2.88;2.20;;;24.30;73.50;;;;;;5004913;28;20361;-80
2023/07/30 09:31:55;;;;;;;2.10;2.00;;;24.50;72.30;;;;;;4995744;28;20165;-80
2023/07/30 09:34:23;;;;;;;1.70;1.60;;;24.50;70.20;;;;;;4998407;28;20056;-81
2023/07/30 09:36:54;;;;;;;1.80;1.70;;;24.30;66.00;;;;;;4998326;28;20041;-80
2023/07/30 09:39:26;;;;;;;2.17;1.80;;;24.40;68.20;;;;;;4994724;28;20159;-80
2023/07/30 09:42:00;;;;;;;2.67;2.03;;;24.50;70.00;;;;;;4999794;28;20061;-82
2023/07/30 09:44:25;;;;;;;3.90;1.92;;;24.50;69.10;;;;;;5011362;28;20030;-81
2023/07/30 09:46:51;;;;;;;2.78;1.98;;;24.50;69.00;;;;;;5011540;28;20361;-81
2023/07/30 09:49:18;;;;;;;5.05;1.75;;;24.30;67.40;;;;;;5021746;28;20038;-80
2023/07/30 09:51:44;;;;;;;2.05;1.70;;;24.40;67.20;;;;;;5011340;28;20030;-81
2023/07/30 09:54:12;;;;;;;3.22;2.10;;;24.50;67.10;;;;;;5009491;28;20038;-81
2023/07/30 09:56:40;;;;;;;1.80;1.70;;;24.60;68.80;;;;;;5007222;28;20490;-81
2023/07/30 09:59:06;;;;;;;3.17;1.77;;;24.30;67.10;;;;;;5011151;28;20085;-82
2023/07/30 10:01:41;;;;;;;2.00;1.75;;;24.30;66.20;;;;;;5011143;28;20040;-82
2023/07/30 10:04:09;;;;;;;1.88;1.70;;;24.40;67.70;;;;;;5009886;28;20029;-82
2023/07/30 10:06:46;;;;;;;2.00;1.83;;;24.50;68.10;;;;;;5004922;28;20026;-82
2023/07/30 10:09:13;;;;;;;1.63;1.42;;;24.60;65.90;;;;;;4996529;28;20117;-81
2023/07/30 10:11:41;;;;;;;1.77;1.65;;;24.60;65.50;;;;;;5003719;28;20422;-81
2023/07/30 10:14:07;;;;;;;1.83;1.65;;;24.70;66.20;;;;;;5008837;28;20487;-81
2023/07/30 10:16:33;;;;;;;2.45;1.80;;;24.80;65.90;;;;;;5003567;28;20032;-82
2023/07/30 10:18:59;;;;;;;2.15;1.85;;;24.90;64.70;;;;;;5010841;28;20109;-82
2023/07/30 10:21:26;;;;;;;2.40;2.15;;;25.00;63.80;;;;;;5004022;28;20067;-81
2023/07/30 10:24:04;;;;;;;2.65;2.20;;;25.20;64.70;;;;;;5009612;28;20026;-81
2023/07/30 10:26:31;;;;;;;3.55;1.65;;;25.20;64.40;;;;;;5005623;28;20026;-81
2023/07/30 10:29:29;;;;;;;2.63;2.30;;;25.30;64.10;;;;;;5073908;28;20432;-81
2023/07/30 10:31:57;;;;;;;2.45;2.00;;;25.30;63.90;;;;;;4975610;28;20057;-82
2023/07/30 10:34:27;;;;;;;2.33;2.10;;;25.10;62.60;;;;;;4999240;28;20455;-82
2023/07/30 10:36:55;;;;;;;3.20;1.70;;;25.20;64.30;;;;;;5005428;28;20026;-82
2023/07/30 10:39:27;;;;;;;1.65;1.55;;;25.30;64.40;;;;;;5005371;28;20079;-82
2023/07/30 10:41:57;;;;;;;4.10;2.10;;;25.30;63.00;;;;;;5000596;28;20022;-82
2023/07/30 10:44:25;;;;;;;4.00;2.20;;;25.30;63.10;;;;;;5010477;28;20024;-82
2023/07/30 10:46:56;;;;;;;2.20;2.03;;;25.30;61.40;;;;;;5009532;28;20075;-82
2023/07/30 10:49:22;;;;;;;1.50;1.40;;;25.20;61.70;;;;;;5009740;28;20022;-82
2023/07/30 10:51:48;;;;;;;2.28;2.08;;;25.40;63.10;;;;;;5010463;28;20037;-82
2023/07/30 10:54:15;;;;;;;3.20;2.22;;;25.50;64.20;;;;;;5009089;28;20522;-82
2023/07/30 10:56:42;;;;;;;2.65;1.77;;;25.40;61.20;;;;;;4999871;28;20041;-82
2023/07/30 10:59:08;;;;;;;1.83;1.70;;;25.20;62.10;;;;;;5010500;28;20037;-81
2023/07/30 11:01:39;;;;;;;3.35;1.80;;;25.20;62.70;;;;;;5010259;28;20471;-82
2023/07/30 11:04:17;;;;;;;4.93;2.53;;;25.30;64.40;;;;;;5009008;28;20034;-82
2023/07/30 11:06:50;;;;;;;1.73;1.63;;;25.30;64.60;;;;;;5009022;28;20022;-82
2023/07/30 11:09:33;;;;;;;1.77;1.67;;;25.30;63.20;;;;;;5008906;28;20036;-83
2023/07/30 11:11:59;;;;;;;3.03;1.70;;;25.40;62.30;;;;;;5000220;28;20037;-83
2023/07/30 11:14:26;;;;;;;2.20;2.00;;;25.20;61.10;;;;;;5010098;28;20026;-83
2023/07/30 11:17:00;;;;;;;2.40;2.00;;;25.00;60.20;;;;;;5008997;28;20104;-83
2023/07/30 11:19:27;;;;;;;3.30;2.10;;;25.00;60.80;;;;;;4996960;28;20025;-83
2023/07/30 11:21:55;;;;;;;2.00;1.80;;;24.90;61.70;;;;;;5010165;28;20596;-83
2023/07/30 11:24:24;;;;;;;2.58;2.38;;;25.00;62.50;;;;;;5008801;28;20029;-83
2023/07/30 11:27:00;;;;;;;3.13;1.92;;;25.10;62.00;;;;;;5006893;28;20395;-83
2023/07/30 11:29:26;;;;;;;3.60;2.03;;;25.00;60.10;;;;;;4996893;28;20394;-83
2023/07/30 11:31:56;;;;;;;2.90;2.08;;;24.90;61.70;;;;;;5008223;28;20034;-82
2023/07/30 11:34:22;;;;;;;3.03;2.10;;;24.80;62.00;;;;;;5008500;28;20014;-83
2023/07/30 11:36:48;;;;;;;2.40;2.20;;;24.90;61.70;;;;;;5009387;28;20372;-83
2023/07/30 11:39:14;;;;;;;2.20;2.00;;;25.00;61.70;;;;;;5008367;28;20053;-84
2023/07/30 11:41:40;;;;;;;2.10;2.00;;;25.00;62.50;;;;;;5008043;28;20050;-84
2023/07/30 11:44:05;;;;;;;2.50;2.05;;;25.00;62.50;;;;;;5009354;28;20130;-83
2023/07/30 11:46:32;;;;;;;2.22;2.03;;;24.90;60.70;;;;;;5007884;28;20030;-84
2023/07/30 11:49:17;;;;;;;3.13;2.05;;;24.90;62.50;;;;;;5009194;28;20033;-83
2023/07/30 11:51:43;;;;;;;2.88;2.58;;;24.80;61.50;;;;;;5008170;28;20452;-83
2023/07/30 11:54:19;;;;;;;2.60;2.40;;;24.90;61.60;;;;;;5009265;28;20074;-83
2023/07/30 11:56:45;;;;;;;4.78;2.55;;;25.00;62.90;;;;;;5010979;28;20483;-82
2023/07/30 11:59:10;;;;;;;2.67;2.35;;;24.90;62.00;;;;;;5030200;28;20038;-81
2023/07/30 12:01:37;;;;;;;3.35;2.00;;;24.80;60.90;;;;;;5104853;28;20022;-81
2023/07/30 12:04:04;;;;;;;2.45;2.25;;;25.00;62.40;;;;;;5086706;28;20038;-83
2023/07/30 12:07:02;;;;;;;5.10;2.10;;;25.00;61.00;;;;;;5015424;28;20030;-83
2023/07/30 12:09:30;;;;;;;2.97;2.78;;;25.00;62.20;;;;;;4992843;28;20038;-81
2023/07/30 12:11:58;;;;;;;3.63;2.58;;;24.90;61.80;;;;;;5011801;28;20056;-81
2023/07/30 12:14:33;;;;;;;4.45;2.75;;;25.00;61.00;;;;;;5011787;28;20022;-81
2023/07/30 12:17:01;;;;;;;2.90;2.70;;;25.10;61.40;;;;;;5046872;28;20026;-83
2023/07/30 12:19:27;;;;;;;3.35;2.75;;;25.00;62.00;;;;;;5004903;28;20022;-82
2023/07/30 12:21:53;;;;;;;3.00;2.47;;;24.90;61.80;;;;;;5010969;28;20026;-82
2023/07/30 12:24:19;;;;;;;3.88;3.25;;;24.80;62.50;;;;;;5011347;28;20022;-84
2023/07/30 12:26:45;;;;;;;3.83;2.78;;;25.00;63.20;;;;;;5012697;28;20030;-82
2023/07/30 12:29:10;;;;;;;3.55;2.67;;;25.10;63.00;;;;;;5012796;28;20018;-83
2023/07/30 12:31:36;;;;;;;3.53;2.80;;;25.10;62.60;;;;;;5011282;28;20068;-81
2023/07/30 12:34:02;;;;;;;2.65;2.40;;;25.10;62.00;;;;;;5076225;28;20557;-83
2023/07/30 12:36:28;;;;;;;3.80;2.67;;;25.10;62.20;;;;;;4998843;28;20063;-83
2023/07/30 12:38:54;;;;;;;3.40;3.10;;;25.20;63.20;;;;;;5010827;28;20441;-82
2023/07/30 12:41:25;;;;;;;3.30;2.67;;;25.10;63.40;;;;;;5012584;28;20022;-82
2023/07/30 12:43:52;;;;;;;4.15;2.63;;;25.10;64.00;;;;;;5005996;28;20502;-81